sensor_id;sensor_type;location;lat;lon;timestamp;P1;durP1;ratioP1;P2;durP2;ratioP2
43626;SDS011;29217;52.586;13.442;2024-02-15T00:01:33;11.75;;;6.45;;
43626;SDS011;29217;52.586;13.442;2024-02-15T00:03:59;10.30;;;6.22;;
43626;SDS011;29217;52.586;13.442;2024-02-15T00:06:24;11.35;;;6.35;;
43626;SDS011;29217;52.586;13.442;2024-02-15T00:08:50;10.27;;;6.78;;
43626;SDS011;29217;52.586;13.442;2024-02-15T00:11:17;15.32;;;7.18;;
43626;SDS011;29217;52.586;13.442;2024-02-15T00:13:43;12.40;;;6.32;;
43626;SDS011;29217;52.586;13.442;2024-02-15T00:16:13;10.57;;;6.32;;
43626;SDS011;29217;52.586;13.442;2024-02-15T00:18:39;12.45;;;6.70;;
43626;SDS011;29217;52.586;13.442;2024-02-15T00:21:05;17.33;;;6.07;;
43626;SDS011;29217;52.586;13.442;2024-02-15T00:23:31;10.90;;;6.78;;
43626;SDS011;29217;52.586;13.442;2024-02-15T00:25:57;13.05;;;7.05;;
43626;SDS011;29217;52.586;13.442;2024-02-15T00:28:23;12.02;;;6.75;;
43626;SDS011;29217;52.586;13.442;2024-02-15T00:30:49;20.27;;;6.70;;
43626;SDS011;29217;52.586;13.442;2024-02-15T00:33:15;10.88;;;6.72;;
43626;SDS011;29217;52.586;13.442;2024-02-15T00:35:41;10.90;;;6.47;;
43626;SDS011;29217;52.586;13.442;2024-02-15T00:38:07;11.45;;;6.10;;
43626;SDS011;29217;52.586;13.442;2024-02-15T00:40:32;12.05;;;6.97;;
43626;SDS011;29217;52.586;13.442;2024-02-15T00:42:58;10.88;;;6.43;;
43626;SDS011;29217;52.586;13.442;2024-02-15T00:45:24;12.68;;;6.35;;
43626;SDS011;29217;52.586;13.442;2024-02-15T00:47:49;10.10;;;6.63;;
43626;SDS011;29217;52.586;13.442;2024-02-15T00:50:15;12.48;;;6.60;;
43626;SDS011;29217;52.586;13.442;2024-02-15T00:52:41;16.48;;;6.80;;
43626;SDS011;29217;52.586;13.442;2024-02-15T00:55:06;11.15;;;6.43;;
43626;SDS011;29217;52.586;13.442;2024-02-15T00:57:32;10.23;;;6.38;;
43626;SDS011;29217;52.586;13.442;2024-02-15T00:59:58;13.43;;;6.93;;
43626;SDS011;29217;52.586;13.442;2024-02-15T01:02:24;15.48;;;7.10;;
43626;SDS011;29217;52.586;13.442;2024-02-15T01:04:50;11.77;;;6.70;;
43626;SDS011;29217;52.586;13.442;2024-02-15T01:07:17;15.65;;;8.23;;
43626;SDS011;29217;52.586;13.442;2024-02-15T01:09:43;14.00;;;6.60;;
43626;SDS011;29217;52.586;13.442;2024-02-15T01:12:10;13.45;;;7.32;;
43626;SDS011;29217;52.586;13.442;2024-02-15T01:14:36;11.98;;;7.50;;
43626;SDS011;29217;52.586;13.442;2024-02-15T01:17:02;12.52;;;6.70;;
43626;SDS011;29217;52.586;13.442;2024-02-15T01:19:28;13.95;;;7.15;;
43626;SDS011;29217;52.586;13.442;2024-02-15T01:21:53;14.60;;;7.65;;
43626;SDS011;29217;52.586;13.442;2024-02-15T01:24:19;17.10;;;7.05;;
43626;SDS011;29217;52.586;13.442;2024-02-15T01:26:44;13.90;;;7.07;;
43626;SDS011;29217;52.586;13.442;2024-02-15T01:29:12;23.05;;;8.07;;
43626;SDS011;29217;52.586;13.442;2024-02-15T01:31:38;13.57;;;7.07;;
43626;SDS011;29217;52.586;13.442;2024-02-15T01:34:04;15.80;;;7.50;;
43626;SDS011;29217;52.586;13.442;2024-02-15T01:36:29;14.80;;;7.85;;
43626;SDS011;29217;52.586;13.442;2024-02-15T01:38:55;22.77;;;8.50;;
43626;SDS011;29217;52.586;13.442;2024-02-15T01:41:21;15.23;;;8.15;;
43626;SDS011;29217;52.586;13.442;2024-02-15T01:43:47;16.85;;;8.10;;
43626;SDS011;29217;52.586;13.442;2024-02-15T01:46:13;14.27;;;7.75;;
43626;SDS011;29217;52.586;13.442;2024-02-15T01:48:40;16.33;;;7.80;;
43626;SDS011;29217;52.586;13.442;2024-02-15T01:51:07;15.25;;;8.13;;
43626;SDS011;29217;52.586;13.442;2024-02-15T01:53:35;16.77;;;8.05;;
43626;SDS011;29217;52.586;13.442;2024-02-15T01:56:00;15.48;;;8.32;;
43626;SDS011;29217;52.586;13.442;2024-02-15T01:58:27;17.67;;;8.13;;
43626;SDS011;29217;52.586;13.442;2024-02-15T02:00:53;19.70;;;9.05;;
43626;SDS011;29217;52.586;13.442;2024-02-15T02:03:21;16.27;;;8.15;;
43626;SDS011;29217;52.586;13.442;2024-02-15T02:05:47;15.15;;;8.15;;
43626;SDS011;29217;52.586;13.442;2024-02-15T02:08:12;19.70;;;7.70;;
43626;SDS011;29217;52.586;13.442;2024-02-15T02:10:38;14.80;;;7.93;;
43626;SDS011;29217;52.586;13.442;2024-02-15T02:13:05;12.20;;;7.25;;
43626;SDS011;29217;52.586;13.442;2024-02-15T02:15:34;18.00;;;8.07;;
43626;SDS011;29217;52.586;13.442;2024-02-15T02:18:00;17.75;;;8.45;;
43626;SDS011;29217;52.586;13.442;2024-02-15T02:20:26;12.25;;;7.15;;
43626;SDS011;29217;52.586;13.442;2024-02-15T02:22:53;16.10;;;7.68;;
43626;SDS011;29217;52.586;13.442;2024-02-15T02:25:22;22.30;;;8.75;;
43626;SDS011;29217;52.586;13.442;2024-02-15T02:27:51;17.92;;;7.68;;
43626;SDS011;29217;52.586;13.442;2024-02-15T02:30:17;15.63;;;7.88;;
43626;SDS011;29217;52.586;13.442;2024-02-15T02:32:44;17.75;;;9.00;;
43626;SDS011;29217;52.586;13.442;2024-02-15T02:35:11;19.35;;;8.68;;
43626;SDS011;29217;52.586;13.442;2024-02-15T02:37:40;16.55;;;8.85;;
43626;SDS011;29217;52.586;13.442;2024-02-15T02:40:07;18.27;;;8.82;;
43626;SDS011;29217;52.586;13.442;2024-02-15T02:42:53;20.33;;;8.60;;
43626;SDS011;29217;52.586;13.442;2024-02-15T02:45:21;16.10;;;8.32;;
43626;SDS011;29217;52.586;13.442;2024-02-15T02:47:48;22.35;;;9.40;;
43626;SDS011;29217;52.586;13.442;2024-02-15T02:50:14;21.50;;;9.65;;
43626;SDS011;29217;52.586;13.442;2024-02-15T02:52:40;18.85;;;9.52;;
43626;SDS011;29217;52.586;13.442;2024-02-15T02:55:06;19.75;;;8.98;;
43626;SDS011;29217;52.586;13.442;2024-02-15T02:57:35;19.55;;;9.40;;
43626;SDS011;29217;52.586;13.442;2024-02-15T03:00:04;25.45;;;9.70;;
43626;SDS011;29217;52.586;13.442;2024-02-15T03:02:33;22.90;;;9.35;;
43626;SDS011;29217;52.586;13.442;2024-02-15T03:05:01;20.13;;;9.32;;
43626;SDS011;29217;52.586;13.442;2024-02-15T03:07:34;22.08;;;9.63;;
43626;SDS011;29217;52.586;13.442;2024-02-15T03:10:00;19.15;;;9.07;;
43626;SDS011;29217;52.586;13.442;2024-02-15T03:12:29;16.83;;;8.35;;
43626;SDS011;29217;52.586;13.442;2024-02-15T03:14:56;21.45;;;9.20;;
43626;SDS011;29217;52.586;13.442;2024-02-15T03:17:24;21.75;;;9.48;;
43626;SDS011;29217;52.586;13.442;2024-02-15T03:19:51;20.98;;;9.75;;
43626;SDS011;29217;52.586;13.442;2024-02-15T03:22:16;24.00;;;10.02;;
43626;SDS011;29217;52.586;13.442;2024-02-15T03:24:42;25.00;;;9.55;;
43626;SDS011;29217;52.586;13.442;2024-02-15T03:27:08;21.92;;;10.13;;
43626;SDS011;29217;52.586;13.442;2024-02-15T03:29:37;18.60;;;8.77;;
43626;SDS011;29217;52.586;13.442;2024-02-15T03:32:03;20.30;;;9.63;;
43626;SDS011;29217;52.586;13.442;2024-02-15T03:34:31;21.25;;;10.15;;
43626;SDS011;29217;52.586;13.442;2024-02-15T03:36:57;24.45;;;10.38;;
43626;SDS011;29217;52.586;13.442;2024-02-15T03:39:23;27.65;;;10.77;;
43626;SDS011;29217;52.586;13.442;2024-02-15T03:41:49;22.05;;;10.05;;
43626;SDS011;29217;52.586;13.442;2024-02-15T03:44:16;20.52;;;10.00;;
43626;SDS011;29217;52.586;13.442;2024-02-15T03:46:43;24.83;;;10.55;;
43626;SDS011;29217;52.586;13.442;2024-02-15T03:49:16;20.48;;;9.68;;
43626;SDS011;29217;52.586;13.442;2024-02-15T03:51:42;16.17;;;8.75;;
43626;SDS011;29217;52.586;13.442;2024-02-15T03:54:10;22.80;;;10.45;;
43626;SDS011;29217;52.586;13.442;2024-02-15T03:56:36;20.63;;;9.90;;
43626;SDS011;29217;52.586;13.442;2024-02-15T03:59:10;19.75;;;8.93;;
43626;SDS011;29217;52.586;13.442;2024-02-15T04:01:38;21.33;;;9.75;;
43626;SDS011;29217;52.586;13.442;2024-02-15T04:04:04;18.25;;;8.38;;
43626;SDS011;29217;52.586;13.442;2024-02-15T04:06:30;21.23;;;9.30;;
43626;SDS011;29217;52.586;13.442;2024-02-15T04:08:58;24.90;;;9.45;;
43626;SDS011;29217;52.586;13.442;2024-02-15T04:11:24;18.98;;;9.02;;
43626;SDS011;29217;52.586;13.442;2024-02-15T04:13:50;19.02;;;9.07;;
43626;SDS011;29217;52.586;13.442;2024-02-15T04:16:15;21.42;;;9.68;;
43626;SDS011;29217;52.586;13.442;2024-02-15T04:18:41;20.85;;;8.88;;
43626;SDS011;29217;52.586;13.442;2024-02-15T04:21:09;19.63;;;9.13;;
43626;SDS011;29217;52.586;13.442;2024-02-15T04:23:34;19.85;;;8.82;;
43626;SDS011;29217;52.586;13.442;2024-02-15T04:26:00;19.60;;;8.82;;
43626;SDS011;29217;52.586;13.442;2024-02-15T04:28:25;18.80;;;8.73;;
43626;SDS011;29217;52.586;13.442;2024-02-15T04:30:52;21.60;;;9.45;;
43626;SDS011;29217;52.586;13.442;2024-02-15T04:33:17;26.17;;;9.27;;
43626;SDS011;29217;52.586;13.442;2024-02-15T04:35:43;21.58;;;9.30;;
43626;SDS011;29217;52.586;13.442;2024-02-15T04:38:09;22.85;;;9.48;;
43626;SDS011;29217;52.586;13.442;2024-02-15T04:40:35;21.35;;;8.63;;
43626;SDS011;29217;52.586;13.442;2024-02-15T04:43:03;21.27;;;8.80;;
43626;SDS011;29217;52.586;13.442;2024-02-15T04:45:29;21.15;;;9.07;;
43626;SDS011;29217;52.586;13.442;2024-02-15T04:47:55;22.40;;;9.40;;
43626;SDS011;29217;52.586;13.442;2024-02-15T04:50:22;22.02;;;9.40;;
43626;SDS011;29217;52.586;13.442;2024-02-15T04:52:47;25.92;;;10.23;;
43626;SDS011;29217;52.586;13.442;2024-02-15T04:55:14;26.23;;;9.88;;
43626;SDS011;29217;52.586;13.442;2024-02-15T04:57:42;25.70;;;9.93;;
43626;SDS011;29217;52.586;13.442;2024-02-15T05:00:07;21.52;;;9.32;;
43626;SDS011;29217;52.586;13.442;2024-02-15T05:02:36;22.05;;;10.13;;
43626;SDS011;29217;52.586;13.442;2024-02-15T05:05:06;21.98;;;9.68;;
43626;SDS011;29217;52.586;13.442;2024-02-15T05:07:33;26.55;;;10.05;;
43626;SDS011;29217;52.586;13.442;2024-02-15T05:09:59;25.15;;;10.05;;
43626;SDS011;29217;52.586;13.442;2024-02-15T05:12:31;25.25;;;11.18;;
43626;SDS011;29217;52.586;13.442;2024-02-15T05:14:56;23.83;;;9.77;;
43626;SDS011;29217;52.586;13.442;2024-02-15T05:17:22;27.45;;;9.30;;
43626;SDS011;29217;52.586;13.442;2024-02-15T05:19:48;24.27;;;9.52;;
43626;SDS011;29217;52.586;13.442;2024-02-15T05:22:15;27.63;;;9.73;;
43626;SDS011;29217;52.586;13.442;2024-02-15T05:24:40;20.70;;;9.65;;
43626;SDS011;29217;52.586;13.442;2024-02-15T05:27:06;28.42;;;9.38;;
43626;SDS011;29217;52.586;13.442;2024-02-15T05:29:31;26.85;;;9.70;;
43626;SDS011;29217;52.586;13.442;2024-02-15T05:32:01;24.17;;;9.93;;
43626;SDS011;29217;52.586;13.442;2024-02-15T05:34:27;29.33;;;11.30;;
43626;SDS011;29217;52.586;13.442;2024-02-15T05:36:54;23.45;;;10.48;;
43626;SDS011;29217;52.586;13.442;2024-02-15T05:39:20;25.83;;;9.35;;
43626;SDS011;29217;52.586;13.442;2024-02-15T05:41:47;26.35;;;9.18;;
43626;SDS011;29217;52.586;13.442;2024-02-15T05:44:13;21.73;;;9.45;;
43626;SDS011;29217;52.586;13.442;2024-02-15T05:46:43;28.80;;;10.07;;
43626;SDS011;29217;52.586;13.442;2024-02-15T05:49:09;25.35;;;9.48;;
43626;SDS011;29217;52.586;13.442;2024-02-15T05:51:40;33.85;;;9.75;;
43626;SDS011;29217;52.586;13.442;2024-02-15T05:54:06;26.65;;;9.27;;
43626;SDS011;29217;52.586;13.442;2024-02-15T05:56:31;26.42;;;9.98;;
43626;SDS011;29217;52.586;13.442;2024-02-15T05:58:57;24.15;;;9.95;;
43626;SDS011;29217;52.586;13.442;2024-02-15T06:01:23;23.33;;;9.20;;
43626;SDS011;29217;52.586;13.442;2024-02-15T06:03:49;28.80;;;10.57;;
43626;SDS011;29217;52.586;13.442;2024-02-15T06:06:15;29.33;;;10.10;;
43626;SDS011;29217;52.586;13.442;2024-02-15T06:08:41;22.05;;;9.00;;
43626;SDS011;29217;52.586;13.442;2024-02-15T06:11:07;23.92;;;8.63;;
43626;SDS011;29217;52.586;13.442;2024-02-15T06:13:34;22.48;;;8.70;;
43626;SDS011;29217;52.586;13.442;2024-02-15T06:16:00;27.48;;;9.48;;
43626;SDS011;29217;52.586;13.442;2024-02-15T06:18:27;21.70;;;9.18;;
43626;SDS011;29217;52.586;13.442;2024-02-15T06:20:57;24.25;;;9.30;;
43626;SDS011;29217;52.586;13.442;2024-02-15T06:23:24;22.85;;;8.95;;
43626;SDS011;29217;52.586;13.442;2024-02-15T06:25:52;26.05;;;9.48;;
43626;SDS011;29217;52.586;13.442;2024-02-15T06:28:18;26.27;;;9.38;;
43626;SDS011;29217;52.586;13.442;2024-02-15T06:31:05;25.00;;;9.38;;
43626;SDS011;29217;52.586;13.442;2024-02-15T06:33:50;25.35;;;9.20;;
43626;SDS011;29217;52.586;13.442;2024-02-15T06:36:38;27.33;;;9.23;;
43626;SDS011;29217;52.586;13.442;2024-02-15T06:39:29;28.13;;;9.00;;
43626;SDS011;29217;52.586;13.442;2024-02-15T06:42:06;19.85;;;8.63;;
43626;SDS011;29217;52.586;13.442;2024-02-15T06:44:32;23.00;;;8.70;;
43626;SDS011;29217;52.586;13.442;2024-02-15T06:46:58;24.52;;;8.93;;
43626;SDS011;29217;52.586;13.442;2024-02-15T06:49:24;28.38;;;10.35;;
43626;SDS011;29217;52.586;13.442;2024-02-15T06:51:50;27.50;;;9.70;;
43626;SDS011;29217;52.586;13.442;2024-02-15T06:54:16;24.10;;;8.27;;
43626;SDS011;29217;52.586;13.442;2024-02-15T06:56:44;27.63;;;9.27;;
43626;SDS011;29217;52.586;13.442;2024-02-15T06:59:13;24.50;;;8.90;;
43626;SDS011;29217;52.586;13.442;2024-02-15T07:01:42;25.05;;;9.13;;
43626;SDS011;29217;52.586;13.442;2024-02-15T07:04:08;23.77;;;8.45;;
43626;SDS011;29217;52.586;13.442;2024-02-15T07:06:37;29.10;;;10.32;;
43626;SDS011;29217;52.586;13.442;2024-02-15T07:09:03;26.30;;;8.50;;
43626;SDS011;29217;52.586;13.442;2024-02-15T07:11:31;24.17;;;8.90;;
43626;SDS011;29217;52.586;13.442;2024-02-15T07:13:57;23.73;;;9.55;;
43626;SDS011;29217;52.586;13.442;2024-02-15T07:16:23;27.17;;;9.90;;
43626;SDS011;29217;52.586;13.442;2024-02-15T07:18:49;29.92;;;8.68;;
43626;SDS011;29217;52.586;13.442;2024-02-15T07:21:15;24.05;;;9.68;;
43626;SDS011;29217;52.586;13.442;2024-02-15T07:23:42;24.02;;;8.75;;
43626;SDS011;29217;52.586;13.442;2024-02-15T07:26:07;24.45;;;8.98;;
43626;SDS011;29217;52.586;13.442;2024-02-15T07:28:33;32.83;;;10.38;;
43626;SDS011;29217;52.586;13.442;2024-02-15T07:30:59;23.60;;;9.93;;
43626;SDS011;29217;52.586;13.442;2024-02-15T07:33:27;28.63;;;9.32;;
43626;SDS011;29217;52.586;13.442;2024-02-15T07:35:53;24.13;;;8.75;;
43626;SDS011;29217;52.586;13.442;2024-02-15T07:38:19;20.75;;;8.25;;
43626;SDS011;29217;52.586;13.442;2024-02-15T07:40:47;25.10;;;8.63;;
43626;SDS011;29217;52.586;13.442;2024-02-15T07:43:14;23.45;;;8.82;;
43626;SDS011;29217;52.586;13.442;2024-02-15T07:45:40;31.08;;;9.57;;
43626;SDS011;29217;52.586;13.442;2024-02-15T07:48:07;26.20;;;9.43;;
43626;SDS011;29217;52.586;13.442;2024-02-15T07:50:33;17.83;;;8.52;;
43626;SDS011;29217;52.586;13.442;2024-02-15T07:52:58;18.33;;;8.30;;
43626;SDS011;29217;52.586;13.442;2024-02-15T07:55:25;22.92;;;8.95;;
43626;SDS011;29217;52.586;13.442;2024-02-15T07:57:51;23.85;;;9.32;;
43626;SDS011;29217;52.586;13.442;2024-02-15T08:00:17;23.10;;;8.15;;
43626;SDS011;29217;52.586;13.442;2024-02-15T08:02:43;24.33;;;8.57;;
43626;SDS011;29217;52.586;13.442;2024-02-15T08:05:09;23.33;;;8.75;;
43626;SDS011;29217;52.586;13.442;2024-02-15T08:07:42;21.55;;;8.10;;
43626;SDS011;29217;52.586;13.442;2024-02-15T08:10:10;22.17;;;8.10;;
43626;SDS011;29217;52.586;13.442;2024-02-15T08:12:48;23.05;;;9.15;;
43626;SDS011;29217;52.586;13.442;2024-02-15T08:15:17;21.10;;;8.55;;
43626;SDS011;29217;52.586;13.442;2024-02-15T08:17:43;27.67;;;9.30;;
43626;SDS011;29217;52.586;13.442;2024-02-15T08:20:12;21.98;;;8.98;;
43626;SDS011;29217;52.586;13.442;2024-02-15T08:22:39;24.83;;;9.25;;
43626;SDS011;29217;52.586;13.442;2024-02-15T08:25:09;25.23;;;9.10;;
43626;SDS011;29217;52.586;13.442;2024-02-15T08:27:36;24.48;;;9.65;;
43626;SDS011;29217;52.586;13.442;2024-02-15T08:30:07;22.00;;;8.55;;
43626;SDS011;29217;52.586;13.442;2024-02-15T08:32:34;21.30;;;8.82;;
43626;SDS011;29217;52.586;13.442;2024-02-15T08:35:00;23.92;;;8.25;;
43626;SDS011;29217;52.586;13.442;2024-02-15T08:37:26;23.27;;;8.70;;
43626;SDS011;29217;52.586;13.442;2024-02-15T08:39:51;20.08;;;8.32;;
43626;SDS011;29217;52.586;13.442;2024-02-15T08:42:17;18.77;;;8.70;;
43626;SDS011;29217;52.586;13.442;2024-02-15T08:44:47;21.58;;;8.07;;
43626;SDS011;29217;52.586;13.442;2024-02-15T08:47:13;19.85;;;8.20;;
43626;SDS011;29217;52.586;13.442;2024-02-15T08:49:39;19.60;;;8.45;;
43626;SDS011;29217;52.586;13.442;2024-02-15T08:52:05;22.38;;;9.10;;
43626;SDS011;29217;52.586;13.442;2024-02-15T08:54:32;19.50;;;8.15;;
43626;SDS011;29217;52.586;13.442;2024-02-15T08:56:58;23.67;;;7.97;;
43626;SDS011;29217;52.586;13.442;2024-02-15T08:59:26;18.95;;;8.30;;
43626;SDS011;29217;52.586;13.442;2024-02-15T09:01:54;21.33;;;8.82;;
43626;SDS011;29217;52.586;13.442;2024-02-15T09:04:21;15.80;;;7.78;;
43626;SDS011;29217;52.586;13.442;2024-02-15T09:06:49;19.98;;;8.90;;
43626;SDS011;29217;52.586;13.442;2024-02-15T09:09:15;23.70;;;8.88;;
43626;SDS011;29217;52.586;13.442;2024-02-15T09:11:41;19.83;;;8.20;;
43626;SDS011;29217;52.586;13.442;2024-02-15T09:14:08;19.17;;;8.43;;
43626;SDS011;29217;52.586;13.442;2024-02-15T09:16:36;19.30;;;7.93;;
43626;SDS011;29217;52.586;13.442;2024-02-15T09:19:02;21.90;;;8.07;;
43626;SDS011;29217;52.586;13.442;2024-02-15T09:21:31;17.90;;;7.75;;
43626;SDS011;29217;52.586;13.442;2024-02-15T09:23:58;22.40;;;8.63;;
43626;SDS011;29217;52.586;13.442;2024-02-15T09:26:24;19.15;;;7.97;;
43626;SDS011;29217;52.586;13.442;2024-02-15T09:28:50;21.00;;;8.55;;
43626;SDS011;29217;52.586;13.442;2024-02-15T09:31:18;17.80;;;7.75;;
43626;SDS011;29217;52.586;13.442;2024-02-15T09:33:44;15.82;;;7.43;;
43626;SDS011;29217;52.586;13.442;2024-02-15T09:36:10;15.25;;;7.05;;
43626;SDS011;29217;52.586;13.442;2024-02-15T09:38:37;16.02;;;8.10;;
43626;SDS011;29217;52.586;13.442;2024-02-15T09:41:03;15.80;;;7.40;;
43626;SDS011;29217;52.586;13.442;2024-02-15T09:43:32;12.88;;;6.70;;
43626;SDS011;29217;52.586;13.442;2024-02-15T09:45:58;13.98;;;6.65;;
43626;SDS011;29217;52.586;13.442;2024-02-15T09:48:25;21.30;;;7.93;;
43626;SDS011;29217;52.586;13.442;2024-02-15T09:50:52;14.05;;;6.45;;
43626;SDS011;29217;52.586;13.442;2024-02-15T09:53:20;13.90;;;6.70;;
43626;SDS011;29217;52.586;13.442;2024-02-15T09:55:48;12.60;;;6.53;;
43626;SDS011;29217;52.586;13.442;2024-02-15T09:58:14;11.77;;;5.82;;
43626;SDS011;29217;52.586;13.442;2024-02-15T10:00:40;11.27;;;5.88;;
43626;SDS011;29217;52.586;13.442;2024-02-15T10:03:08;15.20;;;6.65;;
43626;SDS011;29217;52.586;13.442;2024-02-15T10:05:37;13.32;;;5.80;;
43626;SDS011;29217;52.586;13.442;2024-02-15T10:08:05;10.88;;;5.75;;
43626;SDS011;29217;52.586;13.442;2024-02-15T10:10:32;11.40;;;5.63;;
43626;SDS011;29217;52.586;13.442;2024-02-15T10:12:58;13.93;;;6.47;;
43626;SDS011;29217;52.586;13.442;2024-02-15T10:15:38;13.07;;;6.00;;
43626;SDS011;29217;52.586;13.442;2024-02-15T10:18:06;10.65;;;5.72;;
43626;SDS011;29217;52.586;13.442;2024-02-15T10:20:33;12.57;;;5.68;;
43626;SDS011;29217;52.586;13.442;2024-02-15T10:25:33;13.93;;;5.82;;
43626;SDS011;29217;52.586;13.442;2024-02-15T10:28:06;9.85;;;5.57;;
43626;SDS011;29217;52.586;13.442;2024-02-15T10:30:36;12.80;;;6.18;;
43626;SDS011;29217;52.586;13.442;2024-02-15T10:33:02;10.98;;;5.97;;
43626;SDS011;29217;52.586;13.442;2024-02-15T10:35:29;11.23;;;5.55;;
43626;SDS011;29217;52.586;13.442;2024-02-15T10:38:08;11.50;;;5.20;;
43626;SDS011;29217;52.586;13.442;2024-02-15T10:40:35;12.23;;;6.13;;
43626;SDS011;29217;52.586;13.442;2024-02-15T10:43:04;10.77;;;5.10;;
43626;SDS011;29217;52.586;13.442;2024-02-15T10:45:30;9.90;;;5.18;;
43626;SDS011;29217;52.586;13.442;2024-02-15T10:47:57;9.55;;;4.75;;
43626;SDS011;29217;52.586;13.442;2024-02-15T10:50:26;11.15;;;4.82;;
43626;SDS011;29217;52.586;13.442;2024-02-15T10:52:56;9.93;;;5.22;;
43626;SDS011;29217;52.586;13.442;2024-02-15T10:58:06;11.68;;;4.47;;
43626;SDS011;29217;52.586;13.442;2024-02-15T11:00:33;8.43;;;4.68;;
43626;SDS011;29217;52.586;13.442;2024-02-15T11:03:03;9.38;;;4.47;;
43626;SDS011;29217;52.586;13.442;2024-02-15T11:05:33;8.48;;;4.68;;
43626;SDS011;29217;52.586;13.442;2024-02-15T11:08:00;9.27;;;4.38;;
43626;SDS011;29217;52.586;13.442;2024-02-15T11:10:27;7.50;;;3.95;;
43626;SDS011;29217;52.586;13.442;2024-02-15T11:12:53;8.70;;;4.85;;
43626;SDS011;29217;52.586;13.442;2024-02-15T11:18:04;10.57;;;4.50;;
43626;SDS011;29217;52.586;13.442;2024-02-15T11:22:58;10.07;;;4.45;;
43626;SDS011;29217;52.586;13.442;2024-02-15T11:25:31;6.55;;;3.67;;
43626;SDS011;29217;52.586;13.442;2024-02-15T11:28:26;7.65;;;3.88;;
43626;SDS011;29217;52.586;13.442;2024-02-15T11:30:54;7.47;;;3.70;;
43626;SDS011;29217;52.586;13.442;2024-02-15T11:33:29;6.43;;;3.67;;
43626;SDS011;29217;52.586;13.442;2024-02-15T11:36:02;5.53;;;3.30;;
43626;SDS011;29217;52.586;13.442;2024-02-15T11:38:31;5.90;;;3.83;;
43626;SDS011;29217;52.586;13.442;2024-02-15T11:46:08;7.15;;;3.10;;
43626;SDS011;29217;52.586;13.442;2024-02-15T11:48:43;5.20;;;3.08;;
43626;SDS011;29217;52.586;13.442;2024-02-15T11:51:09;5.40;;;3.35;;
43626;SDS011;29217;52.586;13.442;2024-02-15T11:53:36;5.22;;;2.80;;
43626;SDS011;29217;52.586;13.442;2024-02-15T11:56:02;5.72;;;2.85;;
43626;SDS011;29217;52.586;13.442;2024-02-15T11:58:34;4.90;;;3.28;;
43626;SDS011;29217;52.586;13.442;2024-02-15T12:01:17;4.68;;;2.75;;
43626;SDS011;29217;52.586;13.442;2024-02-15T12:04:02;7.38;;;3.13;;
43626;SDS011;29217;52.586;13.442;2024-02-15T12:06:47;5.93;;;2.97;;
43626;SDS011;29217;52.586;13.442;2024-02-15T12:09:31;7.43;;;3.03;;
43626;SDS011;29217;52.586;13.442;2024-02-15T12:12:15;5.57;;;3.33;;
43626;SDS011;29217;52.586;13.442;2024-02-15T12:14:59;6.35;;;3.35;;
43626;SDS011;29217;52.586;13.442;2024-02-15T12:17:43;7.80;;;3.33;;
43626;SDS011;29217;52.586;13.442;2024-02-15T12:20:27;5.25;;;3.00;;
43626;SDS011;29217;52.586;13.442;2024-02-15T12:22:53;6.00;;;3.38;;
43626;SDS011;29217;52.586;13.442;2024-02-15T12:25:19;6.80;;;3.60;;
43626;SDS011;29217;52.586;13.442;2024-02-15T12:27:52;10.85;;;3.45;;
43626;SDS011;29217;52.586;13.442;2024-02-15T12:30:19;7.35;;;3.30;;
43626;SDS011;29217;52.586;13.442;2024-02-15T12:32:46;4.90;;;3.08;;
43626;SDS011;29217;52.586;13.442;2024-02-15T12:35:14;7.20;;;3.42;;
43626;SDS011;29217;52.586;13.442;2024-02-15T12:37:47;7.75;;;3.33;;
43626;SDS011;29217;52.586;13.442;2024-02-15T12:40:19;5.60;;;2.95;;
43626;SDS011;29217;52.586;13.442;2024-02-15T12:42:47;5.95;;;3.15;;
43626;SDS011;29217;52.586;13.442;2024-02-15T12:45:16;5.55;;;3.05;;
43626;SDS011;29217;52.586;13.442;2024-02-15T12:47:45;8.07;;;3.25;;
43626;SDS011;29217;52.586;13.442;2024-02-15T12:50:17;4.75;;;2.97;;
43626;SDS011;29217;52.586;13.442;2024-02-15T12:52:54;6.00;;;2.88;;
43626;SDS011;29217;52.586;13.442;2024-02-15T12:55:21;4.93;;;2.90;;
43626;SDS011;29217;52.586;13.442;2024-02-15T12:57:52;5.45;;;2.83;;
43626;SDS011;29217;52.586;13.442;2024-02-15T13:00:23;3.83;;;2.47;;
43626;SDS011;29217;52.586;13.442;2024-02-15T13:02:54;6.60;;;2.85;;
43626;SDS011;29217;52.586;13.442;2024-02-15T13:05:21;4.30;;;2.40;;
43626;SDS011;29217;52.586;13.442;2024-02-15T13:07:48;4.05;;;2.63;;
43626;SDS011;29217;52.586;13.442;2024-02-15T13:10:15;4.57;;;2.50;;
43626;SDS011;29217;52.586;13.442;2024-02-15T13:12:44;5.18;;;2.40;;
43626;SDS011;29217;52.586;13.442;2024-02-15T13:15:12;6.25;;;3.13;;
43626;SDS011;29217;52.586;13.442;2024-02-15T13:17:52;4.50;;;2.47;;
43626;SDS011;29217;52.586;13.442;2024-02-15T13:20:22;4.72;;;2.22;;
43626;SDS011;29217;52.586;13.442;2024-02-15T13:23:19;3.65;;;2.50;;
43626;SDS011;29217;52.586;13.442;2024-02-15T13:25:48;8.13;;;2.25;;
43626;SDS011;29217;52.586;13.442;2024-02-15T13:28:14;5.32;;;2.38;;
43626;SDS011;29217;52.586;13.442;2024-02-15T13:30:40;3.80;;;2.50;;
43626;SDS011;29217;52.586;13.442;2024-02-15T13:33:08;4.38;;;2.40;;
43626;SDS011;29217;52.586;13.442;2024-02-15T13:35:34;5.15;;;2.47;;
43626;SDS011;29217;52.586;13.442;2024-02-15T13:38:01;7.15;;;2.65;;
43626;SDS011;29217;52.586;13.442;2024-02-15T13:40:27;6.75;;;2.70;;
43626;SDS011;29217;52.586;13.442;2024-02-15T13:42:56;5.00;;;2.70;;
43626;SDS011;29217;52.586;13.442;2024-02-15T13:45:29;6.03;;;2.78;;
43626;SDS011;29217;52.586;13.442;2024-02-15T13:47:58;4.78;;;3.25;;
43626;SDS011;29217;52.586;13.442;2024-02-15T13:50:25;4.60;;;3.08;;
43626;SDS011;29217;52.586;13.442;2024-02-15T13:52:53;5.47;;;3.17;;
43626;SDS011;29217;52.586;13.442;2024-02-15T13:55:18;5.28;;;2.67;;
43626;SDS011;29217;52.586;13.442;2024-02-15T13:57:45;6.47;;;2.72;;
43626;SDS011;29217;52.586;13.442;2024-02-15T14:00:15;7.40;;;2.75;;
43626;SDS011;29217;52.586;13.442;2024-02-15T14:02:51;6.68;;;2.35;;
43626;SDS011;29217;52.586;13.442;2024-02-15T14:05:18;5.25;;;2.22;;
43626;SDS011;29217;52.586;13.442;2024-02-15T14:07:47;3.53;;;2.15;;
43626;SDS011;29217;52.586;13.442;2024-02-15T14:10:23;5.90;;;2.60;;
43626;SDS011;29217;52.586;13.442;2024-02-15T14:12:50;4.00;;;2.17;;
43626;SDS011;29217;52.586;13.442;2024-02-15T14:15:36;4.45;;;2.47;;
43626;SDS011;29217;52.586;13.442;2024-02-15T14:18:06;6.75;;;2.60;;
43626;SDS011;29217;52.586;13.442;2024-02-15T14:20:36;4.05;;;2.50;;
43626;SDS011;29217;52.586;13.442;2024-02-15T14:23:02;5.00;;;2.60;;
43626;SDS011;29217;52.586;13.442;2024-02-15T14:25:31;3.72;;;2.40;;
43626;SDS011;29217;52.586;13.442;2024-02-15T14:27:57;13.60;;;2.85;;
43626;SDS011;29217;52.586;13.442;2024-02-15T14:30:23;8.05;;;2.75;;
43626;SDS011;29217;52.586;13.442;2024-02-15T14:33:07;9.25;;;2.38;;
43626;SDS011;29217;52.586;13.442;2024-02-15T14:35:36;3.63;;;2.40;;
43626;SDS011;29217;52.586;13.442;2024-02-15T14:38:04;5.70;;;2.47;;
43626;SDS011;29217;52.586;13.442;2024-02-15T14:40:35;6.90;;;2.13;;
43626;SDS011;29217;52.586;13.442;2024-02-15T14:43:02;5.13;;;2.22;;
43626;SDS011;29217;52.586;13.442;2024-02-15T14:45:29;3.40;;;2.33;;